sensor_id;sensor_type;location;lat;lon;timestamp;pressure;altitude;pressure_sealevel;temperature;humidity
35307;BME280;21420;52.196;21.416;2023-05-25T00:00:12;100567.46;;;12.92;58.53
35307;BME280;21420;52.196;21.416;2023-05-25T00:02:42;100567.36;;;12.88;58.50
35307;BME280;21420;52.196;21.416;2023-05-25T00:05:10;100563.70;;;12.84;58.46
35307;BME280;21420;52.196;21.416;2023-05-25T00:07:37;100562.14;;;12.79;58.48
35307;BME280;21420;52.196;21.416;2023-05-25T00:10:05;100560.62;;;12.70;58.50
35307;BME280;21420;52.196;21.416;2023-05-25T00:12:33;100559.27;;;12.62;58.53
35307;BME280;21420;52.196;21.416;2023-05-25T00:14:59;100558.80;;;12.57;58.63
35307;BME280;21420;52.196;21.416;2023-05-25T00:17:26;100561.74;;;12.53;58.70
35307;BME280;21420;52.196;21.416;2023-05-25T00:19:55;100557.43;;;12.49;59.12
35307;BME280;21420;52.196;21.416;2023-05-25T00:22:23;100560.45;;;12.45;59.03
35307;BME280;21420;52.196;21.416;2023-05-25T00:24:54;100560.67;;;12.40;59.09
35307;BME280;21420;52.196;21.416;2023-05-25T00:27:21;100567.66;;;12.35;59.00
35307;BME280;21420;52.196;21.416;2023-05-25T00:29:48;100571.19;;;12.30;59.29
35307;BME280;21420;52.196;21.416;2023-05-25T00:32:15;100571.50;;;12.25;59.22
35307;BME280;21420;52.196;21.416;2023-05-25T00:34:41;100574.08;;;12.20;59.46
35307;BME280;21420;52.196;21.416;2023-05-25T00:37:09;100579.48;;;12.15;59.60
35307;BME280;21420;52.196;21.416;2023-05-25T00:39:36;100581.51;;;12.09;59.75
35307;BME280;21420;52.196;21.416;2023-05-25T00:42:02;100584.23;;;12.06;59.78
35307;BME280;21420;52.196;21.416;2023-05-25T00:44:30;100584.44;;;12.05;59.84
35307;BME280;21420;52.196;21.416;2023-05-25T00:46:58;100584.21;;;12.04;59.91
35307;BME280;21420;52.196;21.416;2023-05-25T00:49:25;100584.80;;;12.02;60.09
35307;BME280;21420;52.196;21.416;2023-05-25T00:51:53;100580.88;;;12.00;59.89
35307;BME280;21420;52.196;21.416;2023-05-25T00:54:19;100578.89;;;11.99;60.14
35307;BME280;21420;52.196;21.416;2023-05-25T00:56:55;100582.70;;;11.98;60.08
35307;BME280;21420;52.196;21.416;2023-05-25T00:59:27;100585.43;;;11.98;60.16
35307;BME280;21420;52.196;21.416;2023-05-25T01:01:58;100584.60;;;11.97;60.26
35307;BME280;21420;52.196;21.416;2023-05-25T01:04:26;100580.58;;;11.98;60.49
35307;BME280;21420;52.196;21.416;2023-05-25T01:06:55;100580.13;;;11.98;60.54
35307;BME280;21420;52.196;21.416;2023-05-25T01:09:26;100580.66;;;11.98;60.66
35307;BME280;21420;52.196;21.416;2023-05-25T01:11:54;100581.46;;;11.97;60.57
35307;BME280;21420;52.196;21.416;2023-05-25T01:14:22;100583.50;;;11.94;60.65
35307;BME280;21420;52.196;21.416;2023-05-25T01:16:50;100583.80;;;11.89;60.54
35307;BME280;21420;52.196;21.416;2023-05-25T01:19:17;100586.30;;;11.87;60.61
35307;BME280;21420;52.196;21.416;2023-05-25T01:22:00;100584.53;;;11.86;60.84
35307;BME280;21420;52.196;21.416;2023-05-25T01:24:51;100583.90;;;11.84;60.86
35307;BME280;21420;52.196;21.416;2023-05-25T01:27:30;100582.85;;;11.83;60.73
35307;BME280;21420;52.196;21.416;2023-05-25T01:29:58;100585.45;;;11.83;61.01
35307;BME280;21420;52.196;21.416;2023-05-25T01:32:27;100583.86;;;11.80;61.01
35307;BME280;21420;52.196;21.416;2023-05-25T01:34:55;100585.03;;;11.80;61.01
35307;BME280;21420;52.196;21.416;2023-05-25T01:37:23;100589.02;;;11.82;61.14
35307;BME280;21420;52.196;21.416;2023-05-25T01:39:51;100591.27;;;11.86;61.18
35307;BME280;21420;52.196;21.416;2023-05-25T01:42:18;100588.62;;;11.91;61.34
35307;BME280;21420;52.196;21.416;2023-05-25T01:44:45;100588.98;;;11.96;61.44
35307;BME280;21420;52.196;21.416;2023-05-25T01:50:17;100589.32;;;12.01;61.34
35307;BME280;21420;52.196;21.416;2023-05-25T01:52:55;100589.14;;;12.03;61.39
35307;BME280;21420;52.196;21.416;2023-05-25T01:55:26;100589.23;;;12.06;61.55
35307;BME280;21420;52.196;21.416;2023-05-25T01:57:55;100588.29;;;12.09;61.51
35307;BME280;21420;52.196;21.416;2023-05-25T02:00:26;100588.45;;;12.13;61.62
35307;BME280;21420;52.196;21.416;2023-05-25T02:02:56;100588.08;;;12.16;61.61
35307;BME280;21420;52.196;21.416;2023-05-25T02:05:24;100585.02;;;12.19;61.60
35307;BME280;21420;52.196;21.416;2023-05-25T02:07:53;100582.38;;;12.19;61.66
35307;BME280;21420;52.196;21.416;2023-05-25T02:10:20;100588.52;;;12.22;61.80
35307;BME280;21420;52.196;21.416;2023-05-25T02:12:47;100586.83;;;12.26;61.83
35307;BME280;21420;52.196;21.416;2023-05-25T02:15:15;100586.65;;;12.28;61.86
35307;BME280;21420;52.196;21.416;2023-05-25T02:17:52;100590.10;;;12.30;61.78
35307;BME280;21420;52.196;21.416;2023-05-25T02:20:23;100595.20;;;12.34;61.97
35307;BME280;21420;52.196;21.416;2023-05-25T02:22:50;100599.17;;;12.39;62.10
35307;BME280;21420;52.196;21.416;2023-05-25T02:25:17;100595.91;;;12.42;62.16
35307;BME280;21420;52.196;21.416;2023-05-25T02:27:44;100595.15;;;12.45;62.06
35307;BME280;21420;52.196;21.416;2023-05-25T02:30:10;100593.89;;;12.47;62.13
35307;BME280;21420;52.196;21.416;2023-05-25T02:32:37;100597.27;;;12.51;61.90
35307;BME280;21420;52.196;21.416;2023-05-25T02:35:04;100601.72;;;12.55;62.26
35307;BME280;21420;52.196;21.416;2023-05-25T02:37:32;100601.17;;;12.57;62.25
35307;BME280;21420;52.196;21.416;2023-05-25T02:39:58;100603.90;;;12.61;62.27
35307;BME280;21420;52.196;21.416;2023-05-25T02:42:25;100606.84;;;12.65;62.46
35307;BME280;21420;52.196;21.416;2023-05-25T02:44:52;100601.57;;;12.67;62.27
35307;BME280;21420;52.196;21.416;2023-05-25T02:47:18;100597.27;;;12.70;62.39
35307;BME280;21420;52.196;21.416;2023-05-25T02:49:45;100600.60;;;12.74;62.34
35307;BME280;21420;52.196;21.416;2023-05-25T02:52:12;100600.67;;;12.76;62.56
35307;BME280;21420;52.196;21.416;2023-05-25T02:54:39;100605.04;;;12.78;62.32
35307;BME280;21420;52.196;21.416;2023-05-25T02:57:06;100602.86;;;12.79;62.39
35307;BME280;21420;52.196;21.416;2023-05-25T02:59:34;100596.64;;;12.80;62.56
35307;BME280;21420;52.196;21.416;2023-05-25T03:02:01;100599.80;;;12.83;62.59
35307;BME280;21420;52.196;21.416;2023-05-25T03:04:28;100598.48;;;12.87;62.59
35307;BME280;21420;52.196;21.416;2023-05-25T03:06:57;100604.34;;;12.91;62.66
35307;BME280;21420;52.196;21.416;2023-05-25T03:09:25;100604.42;;;12.94;62.91
35307;BME280;21420;52.196;21.416;2023-05-25T03:11:51;100608.00;;;12.97;62.87
35307;BME280;21420;52.196;21.416;2023-05-25T03:14:19;100609.27;;;13.03;62.83
35307;BME280;21420;52.196;21.416;2023-05-25T03:16:55;100612.85;;;13.08;62.67
35307;BME280;21420;52.196;21.416;2023-05-25T03:19:22;100616.23;;;13.09;62.81
35307;BME280;21420;52.196;21.416;2023-05-25T03:21:49;100619.23;;;13.11;62.75
35307;BME280;21420;52.196;21.416;2023-05-25T03:24:17;100618.86;;;13.14;62.65
35307;BME280;21420;52.196;21.416;2023-05-25T03:26:43;100622.66;;;13.18;62.81
35307;BME280;21420;52.196;21.416;2023-05-25T03:29:10;100627.77;;;13.23;63.11
35307;BME280;21420;52.196;21.416;2023-05-25T03:31:37;100629.52;;;13.29;63.04
35307;BME280;21420;52.196;21.416;2023-05-25T03:34:04;100630.33;;;13.32;62.98
35307;BME280;21420;52.196;21.416;2023-05-25T03:36:32;100632.34;;;13.33;63.02
35307;BME280;21420;52.196;21.416;2023-05-25T03:38:59;100635.16;;;13.39;63.12
35307;BME280;21420;52.196;21.416;2023-05-25T03:41:26;100634.59;;;13.46;63.07
35307;BME280;21420;52.196;21.416;2023-05-25T03:43:53;100637.45;;;13.53;63.17
35307;BME280;21420;52.196;21.416;2023-05-25T03:46:20;100638.30;;;13.66;63.33
35307;BME280;21420;52.196;21.416;2023-05-25T03:48:47;100639.73;;;13.86;63.59
35307;BME280;21420;52.196;21.416;2023-05-25T03:51:14;100639.58;;;14.08;63.74
35307;BME280;21420;52.196;21.416;2023-05-25T03:53:41;100639.52;;;14.30;63.99
35307;BME280;21420;52.196;21.416;2023-05-25T03:56:08;100643.59;;;14.44;63.72
35307;BME280;21420;52.196;21.416;2023-05-25T03:58:36;100646.50;;;14.48;63.40
35307;BME280;21420;52.196;21.416;2023-05-25T04:01:02;100644.98;;;14.47;63.36
35307;BME280;21420;52.196;21.416;2023-05-25T04:03:31;100644.20;;;14.59;63.41
35307;BME280;21420;52.196;21.416;2023-05-25T04:05:58;100643.71;;;14.68;63.22
35307;BME280;21420;52.196;21.416;2023-05-25T04:08:27;100640.27;;;14.68;63.31
35307;BME280;21420;52.196;21.416;2023-05-25T04:10:54;100643.21;;;14.67;63.03
35307;BME280;21420;52.196;21.416;2023-05-25T04:13:21;100640.54;;;14.64;63.05
35307;BME280;21420;52.196;21.416;2023-05-25T04:15:49;100640.87;;;14.61;62.69
